createdAt,value
2017-10-11T00:00:44.052Z,32.77
2017-10-11T00:03:10.311Z,32.50
2017-10-11T00:05:36.573Z,32.30
2017-10-11T00:08:03.549Z,36.40
2017-10-11T00:10:29.784Z,38.00
2017-10-11T00:12:56.130Z,39.53
2017-10-11T00:15:22.369Z,41.00
2017-10-11T00:17:48.605Z,42.70
2017-10-11T00:20:14.857Z,37.73
2017-10-11T00:22:41.846Z,32.77
2017-10-11T00:25:08.096Z,46.17
2017-10-11T00:27:34.379Z,40.80
2017-10-11T00:30:01.363Z,39.00
2017-10-11T00:32:27.581Z,31.37
2017-10-11T00:34:53.837Z,31.40
2017-10-11T00:37:20.843Z,36.77
2017-10-11T00:39:47.077Z,28.17
2017-10-11T00:42:13.392Z,30.37
2017-10-11T00:44:39.646Z,26.43
2017-10-11T00:47:05.883Z,33.50
2017-10-11T00:49:32.185Z,38.67
2017-10-11T00:51:58.419Z,29.23
2017-10-11T00:54:24.651Z,27.50
2017-10-11T00:56:50.946Z,40.87
2017-10-11T00:59:17.937Z,37.63
2017-10-11T01:01:44.172Z,30.20
2017-10-11T01:04:10.470Z,30.97
2017-10-11T01:06:36.702Z,30.73
2017-10-11T01:09:02.981Z,21.33
2017-10-11T01:11:29.539Z,33.30
2017-10-11T01:13:56.526Z,39.37
2017-10-11T01:16:22.793Z,25.70
2017-10-11T01:18:49.080Z,29.00
2017-10-11T01:21:15.363Z,27.40
2017-10-11T01:23:41.619Z,23.50
2017-10-11T01:26:08.639Z,24.83
2017-10-11T01:28:34.884Z,23.00
2017-10-11T01:31:01.898Z,25.90
2017-10-11T01:33:28.197Z,34.50
2017-10-11T01:35:54.460Z,24.57
2017-10-11T01:38:20.722Z,29.33
2017-10-11T01:40:47.741Z,23.57
2017-10-11T01:43:13.987Z,26.30
2017-10-11T01:45:40.981Z,26.47
2017-10-11T01:48:07.277Z,30.13
2017-10-11T01:50:34.273Z,31.40
2017-10-11T01:53:00.541Z,28.30
2017-10-11T01:55:27.573Z,25.67
2017-10-11T01:57:53.810Z,33.23
2017-10-11T02:00:20.789Z,31.27
2017-10-11T02:02:47.070Z,23.87
2017-10-11T02:05:13.301Z,26.90
2017-10-11T02:07:39.689Z,30.27
2017-10-11T02:10:05.955Z,18.83
2017-10-11T02:12:32.207Z,24.50
2017-10-11T02:14:59.165Z,22.43
2017-10-11T02:17:25.852Z,24.60
2017-10-11T02:19:52.084Z,29.87
2017-10-11T02:22:18.333Z,27.00
2017-10-11T02:24:45.353Z,23.47
2017-10-11T02:27:11.601Z,32.03
2017-10-11T02:29:37.830Z,25.90
2017-10-11T02:32:04.095Z,22.20
2017-10-11T02:34:30.313Z,26.30
2017-10-11T02:36:57.276Z,24.27
2017-10-11T02:39:23.681Z,32.93
2017-10-11T02:41:50.677Z,24.23
2017-10-11T02:44:16.891Z,33.37
2017-10-11T02:46:43.448Z,25.77
2017-10-11T02:49:09.689Z,30.03
2017-10-11T02:51:35.910Z,24.67
2017-10-11T02:54:02.446Z,30.50
2017-10-11T02:56:28.668Z,27.43
2017-10-11T02:58:54.900Z,26.47
2017-10-11T03:01:21.154Z,29.37
2017-10-11T03:03:47.376Z,28.33
2017-10-11T03:06:13.613Z,27.37
2017-10-11T03:08:40.659Z,31.00
2017-10-11T03:11:07.896Z,27.77
2017-10-11T03:13:34.119Z,39.83
2017-10-11T03:16:00.375Z,35.87
2017-10-11T03:18:27.341Z,30.57
2017-10-11T03:20:53.566Z,27.00
2017-10-11T03:23:20.026Z,37.40
2017-10-11T03:25:46.244Z,28.10
2017-10-11T03:28:12.468Z,38.90
2017-10-11T03:30:38.934Z,35.60
2017-10-11T03:33:05.265Z,26.47
2017-10-11T03:35:31.489Z,29.33
2017-10-11T03:37:58.509Z,26.60
2017-10-11T03:40:24.753Z,32.13
2017-10-11T03:42:50.989Z,28.63
2017-10-11T03:45:17.345Z,35.83
2017-10-11T03:47:43.554Z,30.00
2017-10-11T03:50:09.774Z,31.43
2017-10-11T03:52:37.029Z,22.43
2017-10-11T03:55:03.282Z,46.70
2017-10-11T03:57:29.510Z,32.03
2017-10-11T03:59:55.771Z,29.57
2017-10-11T04:02:21.989Z,47.77
2017-10-11T04:04:48.951Z,40.00
2017-10-11T04:07:15.202Z,43.80
2017-10-11T04:09:41.416Z,48.17
2017-10-11T04:12:07.667Z,60.87
2017-10-11T04:14:33.921Z,49.80
2017-10-11T04:17:00.149Z,58.13
2017-10-11T04:19:26.400Z,51.57
2017-10-11T04:21:53.555Z,61.47
2017-10-11T04:24:20.524Z,55.27
2017-10-11T04:26:46.755Z,50.50
2017-10-11T04:29:13.187Z,62.83
2017-10-11T04:31:39.434Z,51.93
2017-10-11T04:34:05.710Z,47.13
2017-10-11T04:36:32.748Z,61.77
2017-10-11T04:38:58.981Z,47.53
2017-10-11T04:41:25.966Z,54.13
2017-10-11T04:43:52.629Z,62.07
2017-10-11T04:46:18.880Z,67.07
2017-10-11T04:48:45.122Z,56.17
2017-10-11T04:51:12.156Z,65.70
2017-10-11T04:53:38.380Z,48.73
2017-10-11T04:56:04.592Z,62.53
2017-10-11T04:58:31.016Z,59.47
2017-10-11T05:00:57.249Z,50.00
2017-10-11T05:03:23.470Z,45.90
2017-10-11T05:05:49.804Z,58.63
2017-10-11T05:08:16.030Z,48.13
2017-10-11T05:10:42.290Z,45.03
2017-10-11T05:13:08.546Z,43.67
2017-10-11T05:15:34.769Z,52.73
2017-10-11T05:18:01.731Z,42.57
2017-10-11T05:20:27.989Z,47.50
2017-10-11T05:22:54.244Z,50.57
2017-10-11T05:25:20.788Z,43.87
2017-10-11T05:27:47.289Z,46.60
2017-10-11T05:30:13.520Z,42.23
2017-10-11T05:32:39.745Z,51.63
2017-10-11T05:35:05.996Z,37.83
2017-10-11T05:37:32.209Z,42.13
2017-10-11T05:39:58.429Z,40.80
2017-10-11T05:42:25.429Z,42.17
2017-10-11T05:44:51.654Z,42.93
2017-10-11T05:47:18.626Z,32.40
2017-10-11T05:49:44.876Z,36.70
2017-10-11T05:52:11.103Z,49.80
2017-10-11T05:54:37.332Z,40.70
2017-10-11T05:57:03.737Z,46.83
2017-10-11T05:59:29.959Z,42.30
2017-10-11T06:01:56.180Z,32.60
2017-10-11T06:04:22.422Z,45.77
2017-10-11T06:06:48.660Z,46.47
2017-10-11T06:09:14.880Z,43.17
2017-10-11T06:11:41.129Z,44.43
2017-10-11T06:14:07.358Z,32.33
2017-10-11T06:16:33.590Z,37.50
2017-10-11T06:19:00.095Z,43.10
2017-10-11T06:21:26.342Z,41.03
2017-10-11T06:23:52.557Z,47.90
2017-10-11T06:26:18.812Z,41.30
2017-10-11T06:28:45.038Z,44.90
2017-10-11T06:31:11.265Z,40.93
2017-10-11T06:33:37.781Z,27.23
2017-10-11T06:36:04.026Z,40.40
2017-10-11T06:38:30.260Z,37.90
2017-10-11T06:40:57.606Z,52.30
2017-10-11T06:43:23.861Z,48.47
2017-10-11T06:45:50.073Z,44.23
2017-10-11T06:48:16.317Z,42.23
2017-10-11T06:50:42.564Z,37.50
2017-10-11T06:53:09.516Z,37.07
2017-10-11T06:55:36.530Z,39.10
2017-10-11T06:58:02.763Z,26.47
2017-10-11T07:00:28.985Z,35.47
2017-10-11T07:02:55.258Z,36.60
2017-10-11T07:05:21.469Z,29.23
2017-10-11T07:07:48.421Z,34.10
2017-10-11T07:10:15.551Z,45.07
2017-10-11T07:12:41.796Z,31.10
2017-10-11T07:15:09.244Z,31.50
2017-10-11T07:17:35.664Z,29.60
2017-10-11T07:20:01.925Z,35.30
2017-10-11T07:22:28.180Z,21.37
2017-10-11T07:24:54.395Z,25.70
2017-10-11T07:27:20.621Z,23.83
2017-10-11T07:29:46.972Z,25.93
2017-10-11T07:32:13.269Z,28.13
2017-10-11T07:34:39.526Z,31.43
2017-10-11T07:37:06.177Z,40.80
2017-10-11T07:39:33.353Z,31.40
2017-10-11T07:42:00.821Z,18.33
2017-10-11T07:44:27.514Z,21.83
2017-10-11T07:46:53.774Z,22.17
2017-10-11T07:49:20.046Z,23.83
2017-10-11T07:51:46.828Z,22.90
2017-10-11T07:54:13.086Z,28.50
2017-10-11T07:56:40.120Z,14.50
2017-10-11T07:59:06.486Z,18.67
2017-10-11T08:01:32.803Z,19.50
2017-10-11T08:03:59.851Z,22.80
2017-10-11T08:06:26.861Z,22.17
2017-10-11T08:08:53.201Z,32.37
2017-10-11T08:11:19.534Z,20.13
2017-10-11T08:13:45.840Z,26.03
2017-10-11T08:16:12.127Z,26.57
2017-10-11T08:18:38.411Z,44.00
2017-10-11T08:21:04.670Z,15.10
2017-10-11T08:23:31.667Z,12.73
2017-10-11T08:25:58.011Z,12.23
2017-10-11T08:28:24.272Z,20.60
2017-10-11T08:30:51.294Z,16.50
2017-10-11T08:33:17.588Z,39.00
2017-10-11T08:35:43.833Z,21.87
2017-10-11T08:38:10.080Z,15.40
2017-10-11T08:40:36.352Z,22.10
2017-10-11T08:43:02.628Z,17.47
2017-10-11T08:45:28.875Z,13.20
2017-10-11T08:47:55.143Z,7.77
2017-10-11T08:50:21.469Z,11.20
2017-10-11T08:52:47.727Z,9.60
2017-10-11T08:55:14.153Z,8.27
2017-10-11T08:57:40.435Z,16.10
2017-10-11T09:00:07.891Z,6.47
2017-10-11T09:02:35.210Z,8.67
2017-10-11T09:05:01.502Z,25.10
2017-10-11T09:07:27.743Z,4.27
2017-10-11T09:09:54.037Z,4.83
2017-10-11T09:12:21.019Z,5.47
2017-10-11T09:14:47.489Z,5.10
2017-10-11T09:17:13.727Z,5.27
2017-10-11T09:19:40.009Z,4.43
2017-10-11T09:22:06.509Z,4.93
2017-10-11T09:24:33.487Z,3.60
2017-10-11T09:26:59.760Z,3.70
2017-10-11T09:29:26.138Z,6.77
2017-10-11T09:31:52.417Z,6.80
2017-10-11T09:34:18.711Z,3.30
2017-10-11T09:36:45.455Z,7.17
2017-10-11T09:39:11.691Z,5.07
2017-10-11T09:41:38.005Z,6.40
2017-10-11T09:44:04.243Z,6.33
2017-10-11T09:46:30.929Z,6.30
2017-10-11T09:48:58.155Z,5.80
2017-10-11T09:51:24.438Z,17.83
2017-10-11T09:53:50.679Z,11.90
2017-10-11T09:56:17.358Z,5.40
2017-10-11T09:58:44.363Z,5.90
2017-10-11T10:01:10.614Z,6.37
2017-10-11T10:03:37.266Z,14.40
2017-10-11T10:06:04.246Z,6.30
2017-10-11T10:08:31.256Z,4.67
2017-10-11T10:10:57.896Z,7.30
2017-10-11T10:13:24.135Z,64.23
2017-10-11T10:15:50.389Z,6.07
2017-10-11T10:18:17.466Z,8.50
2017-10-11T10:20:43.718Z,12.43
2017-10-11T10:23:10.117Z,7.83
2017-10-11T10:25:36.403Z,6.03
2017-10-11T10:28:02.655Z,11.40
2017-10-11T10:30:29.679Z,8.47
2017-10-11T10:32:56.003Z,23.70
2017-10-11T10:35:22.247Z,15.13
2017-10-11T10:37:49.277Z,20.70
2017-10-11T10:40:15.581Z,25.47
2017-10-11T10:42:41.840Z,22.13
2017-10-11T10:45:08.102Z,21.20
2017-10-11T10:47:34.396Z,25.23
2017-10-11T10:50:00.683Z,21.10
2017-10-11T10:52:26.915Z,15.30
2017-10-11T10:54:53.226Z,31.47
2017-10-11T10:57:19.486Z,23.47
2017-10-11T10:59:45.759Z,34.37
2017-10-11T11:02:12.809Z,44.00
2017-10-11T11:04:39.804Z,69.23
2017-10-11T11:07:06.054Z,32.33
2017-10-11T11:09:32.388Z,39.93
2017-10-11T11:11:58.655Z,26.73
2017-10-11T11:14:25.665Z,45.67
2017-10-11T11:16:51.948Z,35.83
2017-10-11T11:19:18.189Z,35.80
2017-10-11T11:21:44.459Z,52.60
2017-10-11T11:24:10.751Z,37.33
2017-10-11T11:26:37.016Z,40.93
2017-10-11T11:29:03.313Z,28.53
2017-10-11T11:31:29.590Z,39.40
2017-10-11T11:33:56.580Z,48.00
2017-10-11T11:36:22.850Z,82.83
2017-10-11T11:38:49.118Z,44.80
2017-10-11T11:41:15.395Z,84.77
2017-10-11T11:43:41.726Z,34.00
2017-10-11T11:46:08.006Z,35.07
2017-10-11T11:48:34.263Z,42.77
2017-10-11T11:51:00.559Z,29.47
2017-10-11T11:53:26.827Z,30.67
2017-10-11T11:55:53.123Z,40.07
2017-10-11T11:58:19.426Z,37.47
2017-10-11T12:00:46.480Z,32.20
2017-10-11T12:03:13.460Z,27.20
2017-10-11T12:05:40.031Z,26.10
2017-10-11T12:08:06.348Z,26.87
2017-10-11T12:10:32.579Z,24.93
2017-10-11T12:12:59.652Z,17.80
2017-10-11T12:15:26.666Z,20.80
2017-10-11T12:17:52.912Z,25.00
2017-10-11T12:20:19.204Z,121.40
2017-10-11T12:22:45.461Z,29.83
2017-10-11T12:25:11.852Z,92.00
2017-10-11T12:27:38.326Z,19.80
2017-10-11T12:30:04.582Z,37.73
2017-10-11T12:32:30.849Z,47.20
2017-10-11T12:34:57.123Z,26.50
2017-10-11T12:37:23.379Z,20.90
2017-10-11T12:39:50.337Z,29.90
2017-10-11T12:42:16.624Z,19.93
2017-10-11T12:44:42.915Z,15.27
2017-10-11T12:47:09.166Z,21.43
2017-10-11T12:49:35.454Z,20.90
2017-10-11T12:52:02.425Z,16.20
2017-10-11T12:54:28.648Z,20.43
2017-10-11T12:56:54.919Z,17.67
2017-10-11T12:59:21.165Z,25.67
2017-10-11T13:01:48.148Z,25.47
2017-10-11T13:04:14.445Z,16.70
2017-10-11T13:06:41.426Z,19.00
2017-10-11T13:09:07.687Z,17.77
2017-10-11T13:11:34.139Z,15.93
2017-10-11T13:14:00.394Z,14.60
2017-10-11T13:16:27.391Z,17.00
2017-10-11T13:18:53.789Z,19.87
2017-10-11T13:21:20.056Z,14.17
2017-10-11T13:23:46.340Z,11.33
2017-10-11T13:26:12.639Z,17.27
2017-10-11T13:28:39.649Z,19.30
2017-10-11T13:31:06.663Z,16.70
2017-10-11T13:33:32.934Z,14.33
2017-10-11T13:35:59.200Z,21.00
2017-10-11T13:38:26.231Z,16.93
2017-10-11T13:40:52.545Z,54.20
2017-10-11T13:43:18.805Z,28.27
2017-10-11T13:45:45.814Z,48.57
2017-10-11T13:48:12.074Z,28.37
2017-10-11T13:50:39.078Z,21.97
2017-10-11T13:53:05.479Z,21.93
2017-10-11T13:55:31.753Z,23.23
2017-10-11T13:57:58.031Z,19.63
2017-10-11T14:00:24.514Z,17.00
2017-10-11T14:02:50.777Z,20.20
2017-10-11T14:05:17.791Z,15.87
2017-10-11T14:07:44.087Z,16.67
2017-10-11T14:10:10.352Z,21.27
2017-10-11T14:12:36.645Z,15.40
2017-10-11T14:15:02.912Z,19.67
2017-10-11T14:17:29.171Z,14.83
2017-10-11T14:19:55.495Z,17.77
2017-10-11T14:22:22.504Z,16.20
2017-10-11T14:24:48.730Z,17.73
2017-10-11T14:27:15.068Z,20.07
2017-10-11T14:29:41.332Z,30.90
2017-10-11T14:32:08.339Z,62.17
2017-10-11T14:34:34.813Z,50.33
2017-10-11T14:37:01.822Z,37.50
2017-10-11T14:39:28.089Z,25.10
2017-10-11T14:41:55.098Z,16.93
2017-10-11T14:44:21.369Z,19.63
2017-10-11T14:46:48.355Z,14.53
2017-10-11T14:49:14.695Z,15.63
2017-10-11T14:51:41.002Z,12.90
2017-10-11T14:54:07.269Z,16.27
2017-10-11T14:56:33.646Z,13.33
2017-10-11T14:58:59.940Z,15.77
2017-10-11T15:01:26.242Z,11.20
2017-10-11T15:03:52.668Z,19.00
2017-10-11T15:06:18.934Z,12.80
2017-10-11T15:08:45.200Z,13.07
2017-10-11T15:11:11.549Z,11.93
2017-10-11T15:13:37.800Z,12.97
2017-10-11T15:16:04.073Z,14.13
2017-10-11T15:18:31.278Z,9.73
2017-10-11T15:20:57.546Z,11.90
2017-10-11T15:23:24.574Z,12.10
2017-10-11T15:25:51.197Z,14.03
2017-10-11T15:28:17.455Z,10.20
2017-10-11T15:30:44.463Z,14.30
2017-10-11T15:33:11.319Z,10.03
2017-10-11T15:35:37.590Z,18.80
2017-10-11T15:38:03.876Z,11.90
2017-10-11T15:40:30.162Z,7.87
2017-10-11T15:42:56.409Z,10.93
2017-10-11T15:45:22.680Z,16.00
2017-10-11T15:47:48.933Z,20.77
2017-10-11T15:50:15.208Z,15.83
2017-10-11T15:52:41.637Z,9.40
2017-10-11T15:55:07.886Z,13.97
2017-10-11T15:57:34.141Z,13.23
2017-10-11T16:00:01.199Z,9.93
2017-10-11T16:02:27.493Z,8.97
2017-10-11T16:04:53.767Z,21.33
2017-10-11T16:07:20.041Z,28.50
2017-10-11T16:09:46.306Z,13.83
2017-10-11T16:12:13.306Z,6.97
2017-10-11T16:14:39.590Z,9.87
2017-10-11T16:17:06.583Z,10.00
2017-10-11T16:19:32.832Z,22.60
2017-10-11T16:21:59.144Z,8.40
2017-10-11T16:24:25.399Z,5.60
2017-10-11T16:26:52.366Z,4.57
2017-10-11T16:29:19.263Z,9.40
2017-10-11T16:31:45.612Z,34.17
2017-10-11T16:34:11.911Z,5.40
2017-10-11T16:36:38.563Z,18.03
2017-10-11T16:39:04.823Z,10.00
2017-10-11T16:41:31.832Z,7.70
2017-10-11T16:43:58.870Z,8.90
2017-10-11T16:46:25.147Z,5.73
2017-10-11T16:48:52.153Z,5.47
2017-10-11T16:51:18.594Z,9.10
2017-10-11T16:53:44.895Z,5.97
2017-10-11T16:56:11.149Z,5.53
2017-10-11T16:58:37.690Z,5.63
2017-10-11T17:01:03.963Z,5.00
2017-10-11T17:03:30.225Z,5.73
2017-10-11T17:05:56.491Z,25.10
2017-10-11T17:08:22.741Z,11.87
2017-10-11T17:10:49.741Z,7.03
2017-10-11T17:13:16.316Z,4.20
2017-10-11T17:15:43.314Z,4.73
2017-10-11T17:18:09.594Z,3.20
2017-10-11T17:20:36.643Z,4.03
2017-10-11T17:23:03.617Z,3.17
2017-10-11T17:25:29.887Z,11.77
2017-10-11T17:27:56.175Z,3.37
2017-10-11T17:30:22.413Z,7.47
2017-10-11T17:32:48.688Z,5.00
2017-10-11T17:35:15.849Z,3.07
2017-10-11T17:37:42.837Z,5.63
2017-10-11T17:40:09.131Z,4.10
2017-10-11T17:42:36.337Z,5.40
2017-10-11T17:45:02.624Z,2.53
2017-10-11T17:47:28.883Z,2.50
2017-10-11T17:49:55.175Z,4.00
2017-10-11T17:52:22.190Z,4.40
2017-10-11T17:54:48.479Z,3.77
2017-10-11T17:57:14.759Z,5.47
2017-10-11T17:59:41.776Z,3.60
2017-10-11T18:02:08.049Z,4.20
2017-10-11T18:04:35.078Z,5.57
2017-10-11T18:07:01.341Z,3.20
2017-10-11T18:09:27.623Z,7.23
2017-10-11T18:11:53.934Z,7.90
2017-10-11T18:14:20.188Z,8.67
2017-10-11T18:16:46.430Z,4.30
2017-10-11T18:19:13.471Z,5.40
2017-10-11T18:21:40.470Z,6.50
2017-10-11T18:24:06.719Z,5.00
2017-10-11T18:26:33.352Z,4.80
2017-10-11T18:28:59.577Z,8.00
2017-10-11T18:31:25.846Z,10.27
2017-10-11T18:33:53.071Z,11.67
2017-10-11T18:36:19.351Z,4.60
2017-10-11T18:38:45.618Z,32.33
2017-10-11T18:41:11.887Z,7.83
2017-10-11T18:43:38.881Z,5.77
2017-10-11T18:46:05.181Z,5.80
2017-10-11T18:48:31.449Z,7.20
2017-10-11T18:50:57.700Z,5.67
2017-10-11T18:53:24.017Z,6.27
2017-10-11T18:55:50.279Z,9.70
2017-10-11T18:58:17.242Z,10.20
2017-10-11T19:00:43.533Z,6.30
2017-10-11T19:03:09.779Z,8.20
2017-10-11T19:05:36.809Z,8.10
2017-10-11T19:08:03.435Z,11.70
2017-10-11T19:10:29.711Z,5.67
2017-10-11T19:12:55.958Z,12.80
2017-10-11T19:15:22.526Z,9.63
2017-10-11T19:17:48.820Z,12.57
2017-10-11T19:20:15.068Z,9.10
2017-10-11T19:22:41.369Z,8.97
2017-10-11T19:25:09.168Z,12.13
2017-10-11T19:27:35.419Z,8.73
2017-10-11T19:30:01.721Z,8.17
2017-10-11T19:32:27.991Z,11.50
2017-10-11T19:34:54.999Z,8.90
2017-10-11T19:37:21.587Z,8.70
2017-10-11T19:39:48.591Z,10.17
2017-10-11T19:42:14.898Z,14.10
2017-10-11T19:44:41.303Z,8.43
2017-10-11T19:47:07.568Z,9.77
2017-10-11T19:49:33.806Z,9.43
2017-10-11T19:52:00.122Z,11.70
2017-10-11T19:54:26.396Z,10.03
2017-10-11T19:56:53.406Z,9.37
2017-10-11T19:59:19.711Z,8.63
2017-10-11T20:01:46.005Z,9.67
2017-10-11T20:04:13.142Z,8.73
2017-10-11T20:06:39.455Z,7.40
2017-10-11T20:09:05.699Z,11.20
2017-10-11T20:11:32.029Z,9.30
2017-10-11T20:13:58.316Z,8.33
2017-10-11T20:16:24.569Z,8.17
2017-10-11T20:18:50.838Z,9.50
2017-10-11T20:21:17.902Z,8.30
2017-10-11T20:23:44.188Z,8.03
2017-10-11T20:26:10.534Z,7.60
2017-10-11T20:28:37.571Z,8.43
2017-10-11T20:31:03.819Z,10.03
2017-10-11T20:33:30.799Z,9.13
2017-10-11T20:35:57.103Z,6.60
2017-10-11T20:38:23.391Z,7.13
2017-10-11T20:40:49.674Z,6.07
2017-10-11T20:43:15.906Z,6.90
2017-10-11T20:45:42.164Z,8.97
2017-10-11T20:48:08.418Z,7.60
2017-10-11T20:50:34.659Z,6.90
2017-10-11T20:53:01.656Z,5.13
2017-10-11T20:55:27.899Z,7.00
2017-10-11T20:57:54.271Z,7.10
2017-10-11T21:00:21.260Z,7.13
2017-10-11T21:02:47.975Z,11.83
2017-10-11T21:05:14.299Z,4.97
2017-10-11T21:07:40.579Z,7.00
2017-10-11T21:10:07.052Z,4.13
2017-10-11T21:12:34.154Z,6.73
2017-10-11T21:15:00.683Z,8.93
2017-10-11T21:17:27.103Z,9.23
2017-10-11T21:19:53.533Z,5.90
2017-10-11T21:22:19.811Z,6.67
2017-10-11T21:24:46.360Z,8.73
2017-10-11T21:27:13.708Z,4.93
2017-10-11T21:29:40.965Z,6.10
2017-10-11T21:32:08.187Z,4.30
2017-10-11T21:34:35.669Z,6.77
2017-10-11T21:37:02.667Z,5.30
2017-10-11T21:39:29.128Z,8.83
2017-10-11T21:41:55.503Z,6.73
2017-10-11T21:44:21.732Z,6.07
2017-10-11T21:46:48.043Z,5.60
2017-10-11T21:49:15.416Z,7.33
2017-10-11T21:51:41.936Z,6.47
2017-10-11T21:54:08.235Z,8.17
2017-10-11T21:56:34.507Z,6.80
2017-10-11T21:59:01.029Z,5.40
2017-10-11T22:01:28.218Z,6.60
2017-10-11T22:03:54.857Z,9.87
2017-10-11T22:06:21.089Z,4.07
2017-10-11T22:08:47.330Z,6.23
2017-10-11T22:11:13.615Z,5.13
2017-10-11T22:13:40.365Z,5.77
2017-10-11T22:16:06.635Z,3.83
2017-10-11T22:18:32.888Z,7.33
2017-10-11T22:20:59.251Z,6.87
2017-10-11T22:23:25.464Z,6.03
2017-10-11T22:25:52.515Z,9.60
2017-10-11T22:28:19.534Z,5.80
2017-10-11T22:30:45.786Z,5.53
2017-10-11T22:33:12.778Z,3.90
2017-10-11T22:35:39.008Z,9.33
2017-10-11T22:38:05.277Z,4.60
2017-10-11T22:40:32.248Z,4.90
2017-10-11T22:42:58.465Z,5.07
2017-10-11T22:45:25.665Z,6.47
2017-10-11T22:47:51.892Z,6.67
2017-10-11T22:50:18.120Z,4.60
2017-10-11T22:52:44.476Z,8.53
2017-10-11T22:55:10.705Z,6.97
2017-10-11T22:57:37.674Z,4.57
2017-10-11T23:00:04.665Z,6.63
2017-10-11T23:02:30.897Z,9.07
2017-10-11T23:04:57.147Z,10.70
2017-10-11T23:07:23.674Z,5.83
2017-10-11T23:09:49.903Z,8.27
2017-10-11T23:12:16.134Z,14.30
2017-10-11T23:14:42.385Z,12.90
2017-10-11T23:17:09.366Z,14.33
2017-10-11T23:19:35.611Z,6.70
2017-10-11T23:22:02.263Z,16.43
2017-10-11T23:24:28.485Z,11.17
2017-10-11T23:26:54.714Z,10.50
2017-10-11T23:29:21.721Z,11.67
2017-10-11T23:31:47.937Z,15.10
2017-10-11T23:34:14.940Z,8.63
2017-10-11T23:36:41.429Z,8.00
2017-10-11T23:39:07.641Z,14.50
2017-10-11T23:41:34.630Z,13.10
2017-10-11T23:44:00.876Z,15.40
2017-10-11T23:46:27.103Z,8.97
2017-10-11T23:48:53.322Z,10.30
2017-10-11T23:51:19.758Z,27.93
2017-10-11T23:53:45.975Z,32.73
2017-10-11T23:56:12.182Z,11.57
2017-10-11T23:58:38.425Z,11.63
